Time;durP1;ratioP1;P1;durP2;ratioP2;P2;SDS_P1;SDS_P2;PMS_P1;PMS_P2;Temp;Humidity;BMP_temperature;BMP_pressure;BME280_temperature;BME280_humidity;BME280_pressure;Samples;Min_cycle;Max_cycle;Signal;HPM_P1;HPM_P2
2023/02/21 02:15:03;;;;;;;15.02;10.02;;;22.40;99.90;;;;;;5022054;28;20514;-56
2023/02/21 02:17:48;;;;;;;14.98;9.75;;;22.40;99.90;;;;;;5024977;28;20379;-55
2023/02/21 02:20:51;;;;;;;16.52;9.88;;;22.40;99.90;;;;;;5028890;28;20357;-55
2023/02/21 02:23:54;;;;;;;15.02;10.23;;;22.40;99.90;;;;;;5013050;28;20064;-56
2023/02/21 02:26:32;;;;;;;13.80;10.02;;;22.40;99.90;;;;;;5033164;28;20028;-56
2023/02/21 02:29:16;;;;;;;14.10;10.18;;;22.30;99.90;;;;;;5022835;28;20044;-55
2023/02/21 02:32:17;;;;;;;13.45;9.70;;;22.30;99.90;;;;;;5028941;28;20185;-55
2023/02/21 02:34:46;;;;;;;13.43;9.25;;;22.30;99.90;;;;;;5028173;28;20080;-56
2023/02/21 02:37:31;;;;;;;15.80;10.90;;;22.30;99.90;;;;;;5015824;28;20029;-54
2023/02/21 02:40:19;;;;;;;15.15;11.02;;;22.30;99.90;;;;;;5013188;28;20876;-55
2023/02/21 02:42:59;;;;;;;15.20;10.27;;;22.30;99.90;;;;;;5012616;28;20089;-56
2023/02/21 02:45:29;;;;;;;14.40;10.45;;;22.30;99.90;;;;;;5021095;28;20473;-54
2023/02/21 02:48:02;;;;;;;14.70;10.77;;;22.30;99.90;;;;;;5033569;28;20037;-56
2023/02/21 02:50:29;;;;;;;19.85;10.82;;;22.30;99.90;;;;;;5033384;28;20021;-57
2023/02/21 02:53:01;;;;;;;18.35;10.40;;;22.30;99.90;;;;;;5020328;28;20040;-58
2023/02/21 02:56:04;;;;;;;14.02;9.30;;;22.20;99.90;;;;;;4996151;28;20034;-56
2023/02/21 02:58:37;;;;;;;17.77;11.40;;;22.20;99.90;;;;;;5007090;28;20036;-57
2023/02/21 03:01:25;;;;;;;14.63;10.18;;;22.20;99.90;;;;;;5033473;28;20045;-57
2023/02/21 03:03:56;;;;;;;;;;;22.20;99.90;;;;;;5033589;28;20095;-56
2023/02/21 03:06:34;;;;;;;11.65;9.25;;;22.20;99.90;;;;;;5032257;28;19912;-57
2023/02/21 03:09:28;;;;;;;16.02;10.82;;;22.20;99.90;;;;;;5004743;28;20450;-57
2023/02/21 03:12:37;;;;;;;13.75;10.32;;;22.20;99.90;;;;;;5015204;28;20028;-55
2023/02/21 03:15:20;;;;;;;15.32;10.30;;;22.10;99.90;;;;;;4970517;28;20037;-55
2023/02/21 03:18:13;;;;;;;13.73;10.00;;;22.10;99.90;;;;;;5032806;28;20033;-55
2023/02/21 03:20:40;;;;;;;14.75;10.00;;;22.10;99.90;;;;;;5032974;28;20084;-55
2023/02/21 03:23:10;;;;;;;14.43;9.55;;;22.10;99.90;;;;;;5032858;28;20032;-55
2023/02/21 03:25:38;;;;;;;14.13;9.55;;;22.10;99.90;;;;;;5033000;28;20026;-56
2023/02/21 03:28:04;;;;;;;14.63;10.07;;;22.10;99.90;;;;;;5032597;28;20033;-55
2023/02/21 03:30:30;;;;;;;16.10;9.98;;;22.10;99.90;;;;;;5032535;28;20443;-55
2023/02/21 03:32:56;;;;;;;13.43;9.75;;;22.10;99.90;;;;;;5014901;28;20364;-55
2023/02/21 03:35:28;;;;;;;17.00;9.77;;;22.10;99.90;;;;;;5011420;28;20160;-55
2023/02/21 03:37:54;;;;;;;15.40;9.85;;;22.10;99.90;;;;;;5012988;28;20037;-54
2023/02/21 03:40:27;;;;;;;15.63;9.98;;;22.00;99.90;;;;;;5017004;28;20504;-55
2023/02/21 03:42:54;;;;;;;13.88;9.48;;;22.00;99.90;;;;;;5032445;28;20124;-55
2023/02/21 03:45:21;;;;;;;12.00;8.95;;;22.00;99.90;;;;;;5019004;28;20016;-55
2023/02/21 03:47:46;;;;;;;12.70;9.50;;;22.10;99.90;;;;;;5014966;28;20039;-56
2023/02/21 03:50:13;;;;;;;13.95;8.88;;;22.00;99.90;;;;;;5032140;28;20100;-56
2023/02/21 03:52:39;;;;;;;11.93;8.63;;;22.00;99.90;;;;;;5032349;28;20025;-55
2023/02/21 03:55:06;;;;;;;12.65;9.32;;;22.00;99.90;;;;;;5013952;28;20055;-55
2023/02/21 03:57:32;;;;;;;12.65;8.10;;;22.00;99.90;;;;;;5032244;28;20083;-56
2023/02/21 03:59:58;;;;;;;15.38;9.07;;;22.00;99.90;;;;;;5013796;28;20033;-55
2023/02/21 04:02:23;;;;;;;13.73;8.45;;;22.00;99.90;;;;;;5012191;28;20072;-55
2023/02/21 04:04:49;;;;;;;14.10;9.05;;;22.00;99.90;;;;;;5025515;28;20037;-56
2023/02/21 04:07:17;;;;;;;13.98;9.63;;;22.00;99.90;;;;;;5012581;28;20088;-56
2023/02/21 04:09:43;;;;;;;14.40;9.13;;;22.00;99.90;;;;;;5026707;28;20025;-55
2023/02/21 04:12:09;;;;;;;15.18;8.80;;;22.00;99.90;;;;;;5024549;28;20026;-55
2023/02/21 04:14:35;;;;;;;12.18;9.20;;;22.00;99.90;;;;;;5012187;28;20026;-55
2023/02/21 04:17:01;;;;;;;12.20;8.85;;;22.00;99.90;;;;;;5012202;28;20100;-56
2023/02/21 04:19:27;;;;;;;16.23;9.02;;;21.90;99.90;;;;;;5007472;28;20095;-55
2023/02/21 04:21:52;;;;;;;11.90;8.80;;;21.90;99.90;;;;;;5014001;28;20554;-56
2023/02/21 04:24:18;;;;;;;10.52;7.95;;;21.90;99.90;;;;;;5031862;28;20104;-55
2023/02/21 04:26:44;;;;;;;14.35;8.48;;;21.90;99.90;;;;;;5028437;28;20023;-55
2023/02/21 04:29:10;;;;;;;15.90;8.43;;;21.90;99.90;;;;;;5021133;28;20025;-55
2023/02/21 04:31:36;;;;;;;10.55;7.45;;;21.90;99.90;;;;;;5029390;28;20104;-56
2023/02/21 04:34:01;;;;;;;11.27;8.05;;;21.90;99.90;;;;;;5020119;28;20537;-56
2023/02/21 04:36:27;;;;;;;11.07;7.50;;;21.90;99.90;;;;;;5013932;28;20030;-56
2023/02/21 04:38:53;;;;;;;12.90;7.75;;;21.90;99.90;;;;;;5031657;28;20092;-56
2023/02/21 04:41:19;;;;;;;11.82;7.32;;;21.90;99.90;;;;;;5031346;28;20040;-57
2023/02/21 04:43:45;;;;;;;10.70;7.65;;;21.90;99.90;;;;;;5018533;28;20426;-56
2023/02/21 04:46:16;;;;;;;12.52;7.90;;;21.90;99.90;;;;;;5031811;28;20021;-56
2023/02/21 04:48:47;;;;;;;9.82;7.47;;;21.90;99.90;;;;;;5001074;28;20018;-56
2023/02/21 04:51:16;;;;;;;14.30;8.27;;;21.80;99.90;;;;;;5031833;28;20025;-56
2023/02/21 04:53:42;;;;;;;12.85;7.88;;;21.80;99.90;;;;;;5031815;28;20100;-57
2023/02/21 04:56:09;;;;;;;12.55;7.57;;;21.80;99.90;;;;;;5031598;28;20026;-56
2023/02/21 04:58:35;;;;;;;13.88;7.65;;;21.80;99.90;;;;;;5018257;28;20022;-57
2023/02/21 05:01:01;;;;;;;10.63;7.68;;;21.80;99.90;;;;;;5047121;23;20463;-63
2023/02/21 05:03:27;;;;;;;11.18;7.10;;;21.80;99.90;;;;;;5013583;28;20112;-63
2023/02/21 05:05:52;;;;;;;10.43;7.10;;;21.80;99.90;;;;;;5031997;28;20030;-63
2023/02/21 05:08:18;;;;;;;9.57;6.78;;;21.80;99.90;;;;;;5015140;28;20029;-63
2023/02/21 05:10:45;;;;;;;9.60;6.88;;;21.80;99.90;;;;;;5015806;28;20019;-63
2023/02/21 05:13:12;;;;;;;12.35;7.03;;;21.80;99.90;;;;;;5015782;28;20022;-63
2023/02/21 05:15:38;;;;;;;16.35;7.20;;;21.80;99.90;;;;;;5015790;28;20022;-63
2023/02/21 05:18:04;;;;;;;9.35;6.82;;;21.80;99.90;;;;;;5029483;28;20029;-63
2023/02/21 05:20:29;;;;;;;10.32;6.53;;;21.70;99.90;;;;;;5035261;28;20021;-63
2023/02/21 05:22:55;;;;;;;10.05;6.47;;;21.70;99.90;;;;;;5035215;28;20026;-63
2023/02/21 05:25:22;;;;;;;14.43;7.07;;;21.70;99.90;;;;;;5015451;28;20033;-63
2023/02/21 05:27:50;;;;;;;13.85;6.43;;;21.70;99.90;;;;;;5009040;28;20387;-63
2023/02/21 05:30:17;;;;;;;11.00;6.72;;;21.70;99.90;;;;;;5035214;28;20045;-63
2023/02/21 05:32:44;;;;;;;10.32;7.00;;;21.70;99.90;;;;;;5035105;28;20017;-63
2023/02/21 05:35:12;;;;;;;9.13;6.20;;;21.70;99.90;;;;;;5034936;28;20025;-64
2023/02/21 05:37:38;;;;;;;10.00;6.22;;;21.70;99.90;;;;;;5034851;28;20060;-63
2023/02/21 05:40:04;;;;;;;10.13;6.53;;;21.70;99.90;;;;;;5017352;28;20049;-63
2023/02/21 05:42:31;;;;;;;9.93;6.63;;;21.70;99.90;;;;;;5006987;28;20091;-62
2023/02/21 05:44:56;;;;;;;10.52;6.90;;;21.60;99.90;;;;;;5035031;28;20049;-63
2023/02/21 05:47:22;;;;;;;9.80;6.00;;;21.70;99.90;;;;;;5034742;28;20061;-63
2023/02/21 05:49:48;;;;;;;10.15;6.95;;;21.60;99.90;;;;;;5016670;28;20380;-62
2023/02/21 05:52:15;;;;;;;11.98;7.63;;;21.60;99.90;;;;;;5034783;28;20509;-65
2023/02/21 05:54:41;;;;;;;10.50;6.47;;;21.60;99.90;;;;;;5003539;28;20439;-65
2023/02/21 05:57:07;;;;;;;10.52;6.53;;;21.60;99.90;;;;;;5034673;28;20385;-65
2023/02/21 05:59:33;;;;;;;9.57;6.13;;;21.60;99.90;;;;;;5034276;28;20025;-64
2023/02/21 06:01:59;;;;;;;17.25;6.25;;;21.60;99.90;;;;;;5015515;28;20048;-65
2023/02/21 06:04:24;;;;;;;10.70;5.70;;;21.60;99.90;;;;;;5009019;28;20092;-64
2023/02/21 06:06:50;;;;;;;11.68;6.75;;;21.60;99.90;;;;;;5034211;28;20033;-65
2023/02/21 06:09:18;;;;;;;9.25;6.93;;;21.50;99.90;;;;;;5034496;28;20014;-65
2023/02/21 06:11:44;;;;;;;9.52;6.95;;;21.50;99.90;;;;;;5030856;28;20097;-65
2023/02/21 06:14:19;;;;;;;8.63;6.22;;;21.60;99.90;;;;;;5024612;28;20032;-64
2023/02/21 06:16:45;;;;;;;13.00;6.82;;;21.50;99.90;;;;;;5011470;28;20026;-65
2023/02/21 06:19:15;;;;;;;10.13;5.63;;;21.50;99.90;;;;;;5025806;28;20036;-65
2023/02/21 06:21:41;;;;;;;8.18;5.60;;;21.50;99.90;;;;;;5033967;28;20030;-65
2023/02/21 06:24:07;;;;;;;8.75;5.82;;;21.50;99.90;;;;;;5034099;28;20097;-65
2023/02/21 06:26:33;;;;;;;10.30;6.07;;;21.50;99.90;;;;;;5033732;28;20384;-66
2023/02/21 06:28:59;;;;;;;12.23;7.25;;;21.50;99.90;;;;;;5026664;28;20105;-65
2023/02/21 06:31:25;;;;;;;11.38;6.50;;;21.50;99.90;;;;;;5014742;28;20446;-66
2023/02/21 06:33:51;;;;;;;10.35;5.97;;;21.50;99.90;;;;;;5027399;28;20022;-65
2023/02/21 06:36:20;;;;;;;11.23;5.80;;;21.50;99.90;;;;;;5014098;28;20057;-66
2023/02/21 06:38:49;;;;;;;7.07;5.50;;;21.50;99.90;;;;;;5013865;28;20177;-66
2023/02/21 06:41:23;;;;;;;10.20;6.47;;;21.50;99.90;;;;;;5013420;28;20022;-63
2023/02/21 06:43:50;;;;;;;9.77;5.40;;;21.50;99.90;;;;;;5013639;28;20021;-64
2023/02/21 06:46:17;;;;;;;9.13;5.77;;;21.40;99.90;;;;;;5013759;28;20072;-63
2023/02/21 06:48:43;;;;;;;10.57;5.78;;;21.50;99.90;;;;;;5022004;28;20262;-63
2023/02/21 06:51:10;;;;;;;9.80;5.85;;;21.40;99.90;;;;;;5033459;28;20570;-63
2023/02/21 06:53:36;;;;;;;10.10;6.05;;;21.50;99.90;;;;;;5033245;28;20013;-63
2023/02/21 06:56:03;;;;;;;9.30;5.47;;;21.40;99.90;;;;;;5033338;28;20021;-63
2023/02/21 06:58:29;;;;;;;8.55;6.32;;;21.40;99.90;;;;;;5033478;28;20100;-63
2023/02/21 07:00:55;;;;;;;7.80;5.65;;;21.40;99.90;;;;;;5032844;28;20133;-63
2023/02/21 07:03:21;;;;;;;6.60;5.50;;;21.40;99.90;;;;;;5033410;28;20075;-63
2023/02/21 07:05:46;;;;;;;6.65;4.78;;;21.40;99.90;;;;;;5033430;28;20379;-63
2023/02/21 07:08:12;;;;;;;11.00;6.68;;;21.40;99.90;;;;;;5015366;28;20104;-64
2023/02/21 07:10:38;;;;;;;7.65;5.70;;;21.40;99.90;;;;;;5033177;28;20440;-65
2023/02/21 07:13:04;;;;;;;8.48;5.57;;;21.40;99.90;;;;;;5010437;28;20427;-64
2023/02/21 07:15:29;;;;;;;11.18;5.35;;;21.40;99.90;;;;;;5024411;28;20025;-65
2023/02/21 07:17:55;;;;;;;8.75;5.20;;;21.40;99.90;;;;;;5033003;28;20021;-64
2023/02/21 07:20:21;;;;;;;7.22;5.32;;;21.40;99.90;;;;;;5033239;28;20105;-64
2023/02/21 07:22:47;;;;;;;9.82;6.25;;;21.40;99.90;;;;;;5032921;28;20376;-63
2023/02/21 07:25:18;;;;;;;8.82;5.15;;;21.30;99.90;;;;;;5032718;28;20034;-62
2023/02/21 07:27:46;;;;;;;11.57;6.07;;;21.40;99.90;;;;;;5032623;28;20053;-62
2023/02/21 07:30:13;;;;;;;10.50;6.57;;;21.40;99.90;;;;;;5018811;28;20181;-62
2023/02/21 07:32:38;;;;;;;9.82;5.32;;;21.30;99.90;;;;;;5032525;28;20483;-63
2023/02/21 07:35:05;;;;;;;8.77;5.47;;;21.40;99.90;;;;;;5032519;28;20028;-63
2023/02/21 07:37:31;;;;;;;8.93;5.40;;;21.30;99.90;;;;;;5032568;28;20360;-62
2023/02/21 07:39:57;;;;;;;9.40;5.70;;;21.40;99.90;;;;;;5032666;28;20430;-62
2023/02/21 07:42:22;;;;;;;10.35;6.10;;;21.30;99.90;;;;;;5032667;28;20033;-63
2023/02/21 07:44:53;;;;;;;12.07;5.78;;;21.40;99.90;;;;;;5032480;28;20026;-64
2023/02/21 07:47:19;;;;;;;7.88;5.55;;;21.40;99.90;;;;;;5019726;28;20112;-65
2023/02/21 07:49:44;;;;;;;8.23;5.88;;;21.40;99.90;;;;;;5018871;28;20186;-65
2023/02/21 07:52:10;;;;;;;9.98;6.30;;;21.40;99.90;;;;;;5019567;28;20022;-65
2023/02/21 07:54:36;;;;;;;8.75;6.35;;;21.40;99.90;;;;;;5032346;28;20025;-65
2023/02/21 07:57:02;;;;;;;8.52;5.18;;;21.40;99.90;;;;;;5013793;28;20445;-64
2023/02/21 07:59:27;;;;;;;9.40;5.78;;;21.40;99.90;;;;;;5024067;28;20036;-65
2023/02/21 08:01:54;;;;;;;9.00;5.85;;;21.40;99.90;;;;;;5015242;28;20439;-64
2023/02/21 08:04:20;;;;;;;8.75;6.07;;;21.40;99.90;;;;;;5012550;28;20024;-65
2023/02/21 08:06:49;;;;;;;7.53;6.07;;;21.40;99.90;;;;;;5012241;28;20020;-64
2023/02/21 08:09:15;;;;;;;9.77;6.05;;;21.40;99.90;;;;;;5012421;28;20037;-65
2023/02/21 08:11:41;;;;;;;8.38;5.72;;;21.40;99.90;;;;;;5015117;28;20475;-64
2023/02/21 08:14:07;;;;;;;8.65;6.03;;;21.40;99.90;;;;;;5024357;28;20109;-65
2023/02/21 08:16:33;;;;;;;9.35;5.75;;;21.40;99.90;;;;;;5026474;28;20116;-65
2023/02/21 08:18:58;;;;;;;9.10;5.72;;;21.40;99.90;;;;;;5024132;28;20077;-65
2023/02/21 08:21:24;;;;;;;7.95;5.75;;;21.40;99.90;;;;;;5025025;28;20034;-65
2023/02/21 08:23:54;;;;;;;12.30;5.95;;;21.40;99.90;;;;;;5025740;28;20030;-63
2023/02/21 08:26:20;;;;;;;9.52;6.03;;;21.40;99.90;;;;;;5024218;28;20026;-65
2023/02/21 08:28:46;;;;;;;8.70;6.40;;;21.40;99.90;;;;;;5012757;28;20018;-64
2023/02/21 08:31:12;;;;;;;10.75;5.78;;;21.40;99.90;;;;;;5020360;28;20036;-61
2023/02/21 08:33:38;;;;;;;9.77;5.80;;;21.50;99.90;;;;;;5018619;28;20029;-63
2023/02/21 08:36:05;;;;;;;10.20;6.15;;;21.50;99.90;;;;;;5023612;28;20033;-62
2023/02/21 08:38:31;;;;;;;9.43;6.28;;;21.50;99.90;;;;;;5012125;28;20025;-64
2023/02/21 08:40:56;;;;;;;12.27;5.90;;;21.50;99.90;;;;;;5004943;28;20404;-63
2023/02/21 08:43:23;;;;;;;10.70;6.18;;;21.50;99.90;;;;;;5036003;28;20030;-63
2023/02/21 08:45:50;;;;;;;9.48;6.53;;;21.50;99.90;;;;;;5035630;28;20032;-63
2023/02/21 08:48:15;;;;;;;10.27;6.35;;;21.50;99.90;;;;;;5035563;28;20029;-62
2023/02/21 08:50:41;;;;;;;8.18;6.18;;;21.50;99.90;;;;;;5035791;28;20464;-62
2023/02/21 08:53:08;;;;;;;10.43;6.50;;;21.50;99.90;;;;;;5035454;28;20033;-62
2023/02/21 08:55:34;;;;;;;10.68;6.50;;;21.50;99.90;;;;;;5035457;28;20013;-62
2023/02/21 08:58:00;;;;;;;10.10;6.90;;;21.50;99.90;;;;;;5022870;28;20373;-62
2023/02/21 09:00:29;;;;;;;11.43;7.20;;;21.60;99.90;;;;;;5021662;28;20530;-62
2023/02/21 09:02:56;;;;;;;9.93;7.22;;;21.60;99.90;;;;;;5024183;28;20357;-62
2023/02/21 09:05:28;;;;;;;9.35;6.32;;;21.60;99.90;;;;;;5033761;28;20016;-62
2023/02/21 09:07:57;;;;;;;11.05;7.15;;;21.60;99.90;;;;;;5035531;28;20030;-62
2023/02/21 09:10:24;;;;;;;12.20;8.10;;;21.60;99.90;;;;;;5022213;28;20025;-62
2023/02/21 09:12:50;;;;;;;9.85;7.15;;;21.60;99.90;;;;;;5023695;28;20022;-61
2023/02/21 09:15:16;;;;;;;8.85;6.57;;;21.60;99.90;;;;;;5018663;28;20029;-61
2023/02/21 09:17:42;;;;;;;10.43;7.28;;;21.70;99.90;;;;;;5025069;28;20536;-60
2023/02/21 09:20:14;;;;;;;11.45;7.70;;;21.70;99.90;;;;;;5014143;28;20125;-61
2023/02/21 09:22:43;;;;;;;10.10;6.50;;;21.60;99.90;;;;;;5017358;28;20454;-61
2023/02/21 09:25:11;;;;;;;12.20;7.05;;;21.70;99.90;;;;;;5034879;28;20018;-62
2023/02/21 09:27:38;;;;;;;10.60;6.72;;;21.70;99.90;;;;;;5026934;28;20022;-63
2023/02/21 09:30:12;;;;;;;10.50;6.78;;;21.70;99.90;;;;;;5016963;28;20054;-62
2023/02/21 09:32:39;;;;;;;12.13;7.57;;;21.70;99.90;;;;;;5034897;28;20488;-62
2023/02/21 09:35:05;;;;;;;10.27;7.05;;;21.70;99.90;;;;;;5033649;28;20014;-62
2023/02/21 09:37:31;;;;;;;12.38;7.40;;;21.70;99.90;;;;;;5022864;28;20029;-62
2023/02/21 09:39:58;;;;;;;11.07;7.43;;;21.70;99.90;;;;;;5034937;28;20021;-61
2023/02/21 09:42:28;;;;;;;12.18;7.20;;;21.70;99.90;;;;;;5015022;28;20183;-62
2023/02/21 09:44:54;;;;;;;14.05;7.20;;;21.80;99.90;;;;;;5015290;28;20025;-62
2023/02/21 09:47:39;;;;;;;11.25;7.40;;;21.80;99.90;;;;;;5034586;28;20484;-62
2023/02/21 09:50:12;;;;;;;9.65;7.30;;;21.80;99.90;;;;;;5034551;28;20018;-62
2023/02/21 09:52:40;;;;;;;11.20;6.75;;;21.80;99.90;;;;;;5033768;28;20029;-62
2023/02/21 09:55:27;;;;;;;10.25;7.55;;;21.80;99.90;;;;;;5015741;28;20022;-61
2023/02/21 09:57:53;;;;;;;;;;;21.90;99.90;;;;;;5015246;28;20117;-62
2023/02/21 10:00:23;;;;;;;15.75;7.70;;;21.90;99.90;;;;;;5016905;28;19917;-61
2023/02/21 10:03:15;;;;;;;8.93;6.72;;;21.90;99.90;;;;;;5034332;28;20071;-62
2023/02/21 10:05:48;;;;;;;11.98;7.43;;;22.00;99.90;;;;;;5034475;28;20067;-62
2023/02/21 10:08:53;;;;;;;13.82;7.50;;;22.00;99.90;;;;;;5034265;28;20100;-62
2023/02/21 10:11:45;;;;;;;10.82;7.40;;;22.00;99.90;;;;;;5025567;28;20026;-61
2023/02/21 10:14:29;;;;;;;10.27;7.15;;;22.10;99.90;;;;;;5006484;28;20069;-61
2023/02/21 10:17:25;;;;;;;10.88;7.80;;;22.10;99.90;;;;;;5014186;28;20118;-61
2023/02/21 10:19:57;;;;;;;11.32;7.38;;;22.10;99.90;;;;;;5027734;28;20075;-61
2023/02/21 10:22:30;;;;;;;12.90;7.45;;;22.20;99.90;;;;;;5014149;28;20045;-61
2023/02/21 10:24:56;;;;;;;15.77;6.90;;;22.20;99.90;;;;;;5028074;28;20025;-62
2023/02/21 10:27:25;;;;;;;10.65;7.53;;;22.20;99.90;;;;;;5034233;28;20266;-61
2023/02/21 10:30:10;;;;;;;10.80;6.97;;;22.30;99.90;;;;;;5033986;28;20025;-61
2023/02/21 10:32:37;;;;;;;13.20;8.43;;;22.30;99.90;;;;;;5023168;28;20029;-61
2023/02/21 10:35:03;;;;;;;11.35;7.05;;;22.30;99.90;;;;;;5002938;28;20476;-61
2023/02/21 10:37:46;;;;;;;11.93;8.23;;;22.40;99.90;;;;;;5033871;28;20022;-61
2023/02/21 10:40:21;;;;;;;10.15;7.20;;;22.40;99.90;;;;;;5018834;28;20026;-61
2023/02/21 10:42:53;;;;;;;14.02;7.60;;;22.40;99.90;;;;;;5015579;28;20034;-62
2023/02/21 10:45:23;;;;;;;9.73;7.70;;;22.40;99.90;;;;;;5015747;28;20163;-61
2023/02/21 10:48:06;;;;;;;12.60;6.97;;;22.40;99.90;;;;;;5033518;28;20021;-62
2023/02/21 10:50:50;;;;;;;16.77;8.00;;;22.40;99.90;;;;;;5033634;28;20021;-62
2023/02/21 10:53:27;;;;;;;12.52;7.13;;;22.50;99.90;;;;;;5033501;28;20025;-61
2023/02/21 10:56:15;;;;;;;9.80;6.93;;;22.50;99.90;;;;;;5021442;28;20429;-61
2023/02/21 10:59:05;;;;;;;15.50;8.32;;;22.50;99.90;;;;;;5033084;28;20247;-61
2023/02/21 11:01:43;;;;;;;11.65;7.47;;;22.50;99.90;;;;;;5033059;28;20048;-62
2023/02/21 11:04:27;;;;;;;14.80;7.60;;;22.60;99.90;;;;;;5032234;28;20487;-61
2023/02/21 11:07:03;;;;;;;9.73;6.88;;;22.60;99.90;;;;;;5031182;28;20492;-61
2023/02/21 11:09:39;;;;;;;12.50;7.65;;;22.60;99.90;;;;;;5023056;28;20033;-61
2023/02/21 11:12:24;;;;;;;13.05;7.70;;;22.60;99.90;;;;;;5015156;28;20109;-61
2023/02/21 11:14:50;;;;;;;17.55;7.95;;;22.60;99.90;;;;;;5032968;28;20021;-61
2023/02/21 11:17:19;;;;;;;12.65;8.00;;;22.70;99.90;;;;;;5019584;28;20022;-61
2023/02/21 11:20:06;;;;;;;11.32;7.30;;;22.70;99.90;;;;;;5004256;28;20051;-61
2023/02/21 11:22:41;;;;;;;;;;;22.80;99.90;;;;;;5013685;28;20025;-61
2023/02/21 11:25:19;;;;;;;8.23;6.35;;;22.70;99.90;;;;;;5027943;28;19920;-61
2023/02/21 11:27:56;;;;;;;;;;;22.80;99.90;;;;;;5013488;28;20472;-61
2023/02/21 11:30:22;;;;;;;13.45;6.65;;;22.90;99.90;;;;;;5012297;28;19905;-61
2023/02/21 11:32:51;;;;;;;15.20;7.05;;;22.90;99.90;;;;;;4995732;28;20075;-61
2023/02/21 11:35:23;;;;;;;12.75;6.63;;;22.90;99.90;;;;;;5030528;28;20013;-60
2023/02/21 11:37:58;;;;;;;14.95;7.15;;;22.90;99.90;;;;;;5014740;28;20021;-62
2023/02/21 11:40:34;;;;;;;10.88;6.32;;;22.90;99.90;;;;;;5032249;28;20028;-61
2023/02/21 11:43:15;;;;;;;8.13;5.88;;;22.90;99.90;;;;;;5032325;28;20101;-61
2023/02/21 11:45:59;;;;;;;9.68;6.78;;;22.90;99.90;;;;;;5032366;28;20022;-62
2023/02/21 11:48:33;;;;;;;11.23;7.07;;;22.90;99.90;;;;;;5032331;28;20022;-62
2023/02/21 11:51:06;;;;;;;10.35;6.75;;;23.00;99.90;;;;;;5022617;28;20021;-61
2023/02/21 11:53:41;;;;;;;10.50;6.93;;;23.00;99.90;;;;;;5016919;28;20017;-61
2023/02/21 11:56:24;;;;;;;11.48;6.75;;;23.00;99.90;;;;;;5020372;28;20030;-62
2023/02/21 11:59:02;;;;;;;12.63;6.70;;;23.00;99.90;;;;;;5007925;28;20026;-62
2023/02/21 12:01:37;;;;;;;9.32;7.22;;;23.10;99.90;;;;;;5025238;28;20048;-62
2023/02/21 12:04:11;;;;;;;11.93;7.30;;;23.10;99.90;;;;;;5019943;28;20061;-62
2023/02/21 12:06:40;;;;;;;10.73;7.25;;;23.10;99.90;;;;;;5032080;28;20033;-62
2023/02/21 12:09:21;;;;;;;12.45;8.30;;;23.10;99.90;;;;;;5032170;28;20506;-62
2023/02/21 12:11:53;;;;;;;9.25;6.28;;;23.10;99.90;;;;;;5029122;28;20468;-61
2023/02/21 12:14:37;;;;;;;12.60;7.63;;;23.20;99.90;;;;;;5022463;28;20549;-62
2023/02/21 12:17:14;;;;;;;16.17;7.22;;;23.20;99.90;;;;;;5027253;28;20030;-62
2023/02/21 12:19:55;;;;;;;12.45;7.70;;;23.20;99.90;;;;;;5012359;28;20088;-61
2023/02/21 12:22:47;;;;;;;15.25;8.05;;;23.20;99.90;;;;;;5020161;28;20030;-61
2023/02/21 12:25:39;;;;;;;11.77;7.78;;;23.30;99.90;;;;;;5028584;28;20037;-61
2023/02/21 12:28:23;;;;;;;14.55;7.65;;;23.30;99.90;;;;;;5007231;28;20387;-61
2023/02/21 12:31:18;;;;;;;12.60;8.43;;;23.30;99.90;;;;;;5031762;28;20024;-61
2023/02/21 12:33:47;;;;;;;10.02;7.78;;;23.30;99.90;;;;;;5031739;28;20029;-61
2023/02/21 12:36:14;;;;;;;11.20;7.20;;;23.40;99.90;;;;;;5023292;28;20037;-61
2023/02/21 12:38:59;;;;;;;13.10;7.82;;;23.40;99.90;;;;;;5027315;28;20022;-61
2023/02/21 12:42:05;;;;;;;11.43;7.13;;;23.40;99.90;;;;;;4998158;28;20044;-61
2023/02/21 12:44:50;;;;;;;13.82;7.32;;;23.40;99.90;;;;;;5020615;28;20021;-62
2023/02/21 12:47:22;;;;;;;11.63;7.80;;;23.40;99.90;;;;;;5027001;28;20025;-61
2023/02/21 12:49:57;;;;;;;16.58;8.60;;;23.50;99.90;;;;;;5011951;28;20460;-61
2023/02/21 12:52:51;;;;;;;14.52;8.25;;;23.50;99.90;;;;;;5017301;28;20026;-61
2023/02/21 12:55:34;;;;;;;12.30;8.00;;;23.50;99.90;;;;;;5031496;28;20030;-61
2023/02/21 12:58:09;;;;;;;10.95;7.45;;;23.50;99.90;;;;;;5021626;28;20022;-62
2023/02/21 13:00:49;;;;;;;12.43;7.13;;;23.50;99.90;;;;;;5011639;28;20496;-61
2023/02/21 13:03:35;;;;;;;12.45;7.80;;;23.50;99.90;;;;;;5011779;28;20037;-62
2023/02/21 13:06:26;;;;;;;19.00;8.45;;;23.60;99.90;;;;;;5011973;28;20021;-62
2023/02/21 13:09:00;;;;;;;14.15;8.40;;;23.60;99.90;;;;;;5031024;28;20049;-62
2023/02/21 13:11:34;;;;;;;18.48;9.10;;;23.60;99.90;;;;;;5031168;28;20499;-62
2023/02/21 13:14:00;;;;;;;11.38;7.70;;;23.60;99.90;;;;;;5030911;28;20387;-62
2023/02/21 13:16:26;;;;;;;15.07;7.90;;;23.60;99.90;;;;;;5028640;28;20021;-62
2023/02/21 13:18:58;;;;;;;13.25;7.65;;;23.60;99.90;;;;;;5011676;28;20124;-61
2023/02/21 13:21:39;;;;;;;13.55;7.63;;;23.60;99.90;;;;;;5012510;28;20030;-62
2023/02/21 13:24:29;;;;;;;15.68;7.78;;;23.70;99.90;;;;;;5013949;28;20029;-60
2023/02/21 13:27:24;;;;;;;15.40;6.80;;;23.70;99.90;;;;;;5012226;28;20026;-57
2023/02/21 13:29:50;;;;;;;22.95;7.13;;;23.70;99.90;;;;;;5025927;28;20041;-59
2023/02/21 13:32:19;;;;;;;15.95;6.18;;;23.60;99.90;;;;;;5034941;28;20022;-59
2023/02/21 13:34:53;;;;;;;17.40;5.35;;;23.50;99.90;;;;;;5021540;28;20029;-58
2023/02/21 13:37:25;;;;;;;17.45;6.20;;;23.30;99.90;;;;;;5016652;28;20026;-59
2023/02/21 13:40:00;;;;;;;19.85;6.22;;;23.30;99.90;;;;;;5011515;28;20050;-60
2023/02/21 13:42:28;;;;;;;17.25;6.10;;;23.30;99.90;;;;;;5009570;28;20042;-61
2023/02/21 13:45:16;;;;;;;45.13;25.75;;;23.30;99.90;;;;;;5034844;28;20052;-62
2023/02/21 13:47:59;;;;;;;124.90;55.78;;;23.30;99.90;;;;;;5014910;28;20037;-62
2023/02/21 13:50:37;;;;;;;104.90;46.33;;;23.30;99.90;;;;;;5033298;28;20105;-61
2023/02/21 13:53:15;;;;;;;25.80;11.00;;;23.40;99.90;;;;;;5034535;28;20036;-61
2023/02/21 13:56:06;;;;;;;14.07;6.95;;;23.40;99.90;;;;;;5033607;28;20499;-61
2023/02/21 13:58:44;;;;;;;21.35;6.88;;;23.30;99.90;;;;;;5028438;28;20029;-63
2023/02/21 14:01:24;;;;;;;15.05;6.32;;;23.30;99.90;;;;;;5033715;28;20116;-58
2023/02/21 14:03:52;;;;;;;24.13;9.02;;;23.20;99.90;;;;;;5034288;28;20029;-60
2023/02/21 14:06:21;;;;;;;15.20;6.45;;;23.00;99.90;;;;;;5019855;28;20044;-61
2023/02/21 14:08:48;;;;;;;22.90;7.60;;;22.90;99.90;;;;;;5016838;28;20550;-61
2023/02/21 14:11:23;;;;;;;24.05;8.38;;;22.90;99.90;;;;;;5009557;28;20042;-60
2023/02/21 14:13:53;;;;;;;25.10;7.50;;;22.90;99.90;;;;;;5019250;28;20022;-60
2023/02/21 14:16:48;;;;;;;19.33;7.35;;;22.90;99.90;;;;;;5023222;28;20536;-61
2023/02/21 14:19:42;;;;;;;20.65;7.88;;;23.00;99.90;;;;;;5013277;28;20149;-62
2023/02/21 14:22:25;;;;;;;14.80;6.90;;;23.00;99.90;;;;;;5022692;28;20041;-61
2023/02/21 14:25:03;;;;;;;19.67;6.95;;;23.10;99.90;;;;;;5021692;28;20077;-61
2023/02/21 14:27:31;;;;;;;22.20;8.15;;;23.20;99.90;;;;;;5019713;28;20026;-61
2023/02/21 14:30:00;;;;;;;23.77;7.90;;;23.30;99.90;;;;;;5008739;28;20049;-61
2023/02/21 14:32:43;;;;;;;14.68;7.70;;;23.30;99.90;;;;;;4995824;28;20450;-61
2023/02/21 14:35:33;;;;;;;25.00;6.68;;;23.40;99.90;;;;;;5025363;28;20029;-61
2023/02/21 14:38:00;;;;;;;17.92;6.80;;;23.40;99.90;;;;;;5018903;28;20033;-61
2023/02/21 14:40:32;;;;;;;13.88;6.90;;;23.50;99.90;;;;;;5023959;28;20361;-60
2023/02/21 14:43:16;;;;;;;14.43;7.60;;;23.50;99.90;;;;;;5016463;28;20377;-61
2023/02/21 14:46:19;;;;;;;11.90;7.10;;;23.60;99.90;;;;;;5018243;28;20494;-61
2023/02/21 14:48:45;;;;;;;14.48;7.30;;;23.60;99.90;;;;;;5024607;28;20361;-61
2023/02/21 14:51:23;;;;;;;13.07;7.20;;;23.70;99.90;;;;;;5023222;28;20108;-61
2023/02/21 14:54:04;;;;;;;13.77;7.47;;;23.70;99.90;;;;;;5020697;28;20014;-62
2023/02/21 14:56:53;;;;;;;13.73;6.60;;;23.70;99.90;;;;;;5016195;28;20029;-61
2023/02/21 14:59:34;;;;;;;14.75;6.85;;;23.70;99.90;;;;;;5015797;28;20053;-61
2023/02/21 15:02:09;;;;;;;13.88;7.88;;;23.80;99.90;;;;;;5018919;28;20037;-61
2023/02/21 15:04:42;;;;;;;16.80;7.43;;;23.80;99.90;;;;;;5021029;28;20400;-60
2023/02/21 15:07:17;;;;;;;16.38;7.35;;;23.80;99.90;;;;;;5006958;28;20124;-60
2023/02/21 15:09:45;;;;;;;12.63;6.95;;;23.90;99.90;;;;;;5026430;28;20387;-60
2023/02/21 15:12:17;;;;;;;16.23;7.07;;;23.90;99.90;;;;;;5019607;28;20021;-59
2023/02/21 15:14:49;;;;;;;15.88;7.35;;;23.90;99.90;;;;;;5018536;28;20032;-59
2023/02/21 15:17:23;;;;;;;28.33;9.38;;;23.90;99.90;;;;;;5018001;28;20042;-59
2023/02/21 15:20:09;;;;;;;16.20;7.60;;;23.90;99.90;;;;;;5015319;28;20049;-59